createdAt,value
2019-06-10T00:01:10.003Z,14.7
2019-06-10T00:02:22.208Z,14.7
2019-06-10T00:03:34.402Z,14.7
2019-06-10T00:04:46.587Z,14.7
2019-06-10T00:05:58.790Z,14.8
2019-06-10T00:07:10.099Z,14.6
2019-06-10T00:08:23.192Z,14.8
2019-06-10T00:09:35.402Z,14.8
2019-06-10T00:10:47.593Z,14.8
2019-06-10T00:11:59.079Z,14.7
2019-06-10T00:13:11.991Z,14.8
2019-06-10T00:14:24.194Z,14.7
2019-06-10T00:15:36.394Z,14.8
2019-06-10T00:16:48.590Z,14.7
2019-06-10T00:18:00.779Z,14.7
2019-06-10T00:19:12.984Z,14.9
2019-06-10T00:20:25.179Z,14.8
2019-06-10T00:21:37.038Z,14.8
2019-06-10T00:22:49.579Z,14.8
2019-06-10T00:24:01.779Z,14.9
2019-06-10T00:25:13.979Z,14.9
2019-06-10T00:26:26.184Z,15
2019-06-10T00:27:38.377Z,15
2019-06-10T00:28:50.578Z,15
2019-06-10T00:30:02.779Z,14.9
2019-06-10T00:31:14.970Z,15
2019-06-10T00:32:27.180Z,15
2019-06-10T00:33:39.369Z,15
2019-06-10T00:34:51.569Z,14.8
2019-06-10T00:36:03.771Z,15
2019-06-10T00:37:15.969Z,15
2019-06-10T00:38:28.169Z,14.9
2019-06-10T00:39:40.369Z,14.9
2019-06-10T00:40:52.569Z,15
2019-06-10T00:42:04.770Z,14.8
2019-06-10T00:43:16.960Z,14.8
2019-06-10T00:44:29.162Z,14.8
2019-06-10T00:45:41.359Z,14.8
2019-06-10T00:46:53.005Z,14.8
2019-06-10T00:48:05.759Z,14.9
2019-06-10T00:49:17.958Z,14.9
2019-06-10T00:50:30.155Z,14.9
2019-06-10T00:51:42.357Z,14.9
2019-06-10T00:52:54.559Z,14.9
2019-06-10T00:54:06.754Z,14.7
2019-06-10T00:55:18.094Z,14.8
2019-06-10T00:56:31.147Z,14.9
2019-06-10T00:57:43.348Z,14.9
2019-06-10T00:58:55.549Z,14.9
2019-06-10T01:00:07.751Z,14.9
2019-06-10T01:01:19.947Z,14.9
2019-06-10T01:02:32.146Z,14.7
2019-06-10T01:03:44.350Z,14.8
2019-06-10T01:04:56.547Z,14.8
2019-06-10T01:06:08.739Z,15
2019-06-10T01:07:20.939Z,14.9
2019-06-10T01:08:33.142Z,14.9
2019-06-10T01:09:45.337Z,14.9
2019-06-10T01:10:57.536Z,14.9
2019-06-10T01:12:09.737Z,15
2019-06-10T01:13:21.935Z,15
2019-06-10T01:14:34.137Z,15.1
2019-06-10T01:15:46.333Z,14.9
2019-06-10T01:16:58.053Z,15
2019-06-10T01:18:10.728Z,14.9
2019-06-10T01:19:22.923Z,15
2019-06-10T01:20:35.012Z,14.9
2019-06-10T01:21:47.032Z,14.9
2019-06-10T01:22:59.529Z,14.9
2019-06-10T01:24:11.726Z,14.9
2019-06-10T01:25:23.954Z,14.9
2019-06-10T01:26:36.133Z,14.9
2019-06-10T01:27:48.326Z,14.9
2019-06-10T01:29:00.513Z,14.8
2019-06-10T01:30:12.729Z,14.9
2019-06-10T01:31:24.920Z,15
2019-06-10T01:32:37.011Z,14.9
2019-06-10T01:33:49.317Z,14.9
2019-06-10T01:35:01.513Z,14.9
2019-06-10T01:36:13.713Z,14.8
2019-06-10T01:37:25.914Z,14.9
2019-06-10T01:38:38.111Z,15
2019-06-10T01:39:50.315Z,14.9
2019-06-10T01:41:02.515Z,15
2019-06-10T01:42:14.715Z,14.9
2019-06-10T01:43:26.009Z,14.9
2019-06-10T01:44:39.103Z,14.9
2019-06-10T01:45:51.308Z,15
2019-06-10T01:47:03.507Z,14.9
2019-06-10T01:48:15.701Z,14.9
2019-06-10T01:49:27.906Z,14.9
2019-06-10T01:50:40.106Z,14.9
2019-06-10T01:51:52.307Z,14.9
2019-06-10T01:53:04.503Z,15.1
2019-06-10T01:54:16.708Z,14.9
2019-06-10T01:55:28.942Z,15
2019-06-10T01:56:41.104Z,14.9
2019-06-10T01:57:53.296Z,15
2019-06-10T02:00:17.695Z,14.9
2019-06-10T02:01:29.894Z,14.8
2019-06-10T02:02:42.095Z,14.8
2019-06-10T02:03:54.294Z,14.8
2019-06-10T02:05:06.491Z,14.9
2019-06-10T02:06:18.733Z,14.8
2019-06-10T02:07:30.892Z,14.9
2019-06-10T02:08:43.095Z,14.9
2019-06-10T02:09:55.297Z,14.9
2019-06-10T02:11:07.481Z,14.9
2019-06-10T02:12:19.682Z,14.9
2019-06-10T02:13:31.882Z,14.8
2019-06-10T02:15:56.283Z,14.9
2019-06-10T02:17:08.491Z,14.9
2019-06-10T02:18:20.682Z,14.9
2019-06-10T02:19:32.884Z,15
2019-06-10T02:20:45.084Z,15
2019-06-10T02:21:57.002Z,15
2019-06-10T02:23:09.478Z,14.9
2019-06-10T02:24:21.067Z,14.9
2019-06-10T02:25:33.873Z,14.9
2019-06-10T02:26:46.072Z,14.9
2019-06-10T02:27:58.027Z,15
2019-06-10T02:29:10.468Z,15
2019-06-10T02:30:22.067Z,14.9
2019-06-10T02:31:34.873Z,15
2019-06-10T02:32:47.072Z,15
2019-06-10T02:33:59.272Z,14.9
2019-06-10T02:35:11.472Z,14.9
2019-06-10T02:36:23.065Z,14.9
2019-06-10T02:37:35.863Z,14.9
2019-06-10T02:38:48.065Z,14.9
2019-06-10T02:40:00.025Z,15
2019-06-10T02:41:12.460Z,14.9
2019-06-10T02:42:24.658Z,15
2019-06-10T02:43:36.863Z,15
2019-06-10T02:44:49.058Z,15
2019-06-10T02:46:01.026Z,15.1
2019-06-10T02:47:13.462Z,15
2019-06-10T02:48:25.698Z,14.9
2019-06-10T02:49:37.086Z,15
2019-06-10T02:50:50.055Z,15
2019-06-10T02:52:02.247Z,14.9
2019-06-10T02:53:14.450Z,15
2019-06-10T02:54:26.650Z,15
2019-06-10T02:55:38.848Z,15.1
2019-06-10T02:56:51.048Z,14.9
2019-06-10T02:58:03.250Z,14.9
2019-06-10T02:59:15.448Z,14.9
2019-06-10T03:00:27.651Z,14.9
2019-06-10T03:01:39.853Z,14.8
2019-06-10T03:02:52.038Z,14.8
2019-06-10T03:04:04.024Z,14.8
2019-06-10T03:05:16.440Z,14.8
2019-06-10T03:06:28.064Z,14.7
2019-06-10T03:07:40.840Z,14.7
2019-06-10T03:08:53.036Z,14.8
2019-06-10T03:10:05.241Z,14.7
2019-06-10T03:11:17.043Z,14.8
2019-06-10T03:12:29.641Z,14.8
2019-06-10T03:13:41.083Z,14.8
2019-06-10T03:14:54.036Z,14.7
2019-06-10T03:16:06.236Z,14.7
2019-06-10T03:17:18.438Z,14.7
2019-06-10T03:18:30.626Z,14.7
2019-06-10T03:19:42.923Z,14.8
2019-06-10T03:20:55.028Z,14.7
2019-06-10T03:22:07.226Z,14.8
2019-06-10T03:23:19.426Z,14.6
2019-06-10T03:24:31.062Z,14.7
2019-06-10T03:25:43.827Z,14.6
2019-06-10T03:26:56.002Z,14.7
2019-06-10T03:28:08.224Z,14.7
2019-06-10T03:29:20.426Z,14.6
2019-06-10T03:30:32.626Z,14.7
2019-06-10T03:31:44.814Z,14.7
2019-06-10T03:32:57.019Z,14.7
2019-06-10T03:34:09.221Z,14.9
2019-06-10T03:35:21.418Z,14.9
2019-06-10T03:36:33.617Z,14.8
2019-06-10T03:37:45.817Z,14.8
2019-06-10T03:38:58.021Z,14.8
2019-06-10T03:40:10.219Z,14.7
2019-06-10T03:41:22.417Z,14.8
2019-06-10T03:42:34.062Z,14.7
2019-06-10T03:43:46.813Z,14.7
2019-06-10T03:44:59.017Z,14.8
2019-06-10T03:46:11.214Z,14.8
2019-06-10T03:47:23.404Z,14.8
2019-06-10T03:48:35.604Z,14.8
2019-06-10T03:49:47.805Z,14.8
2019-06-10T03:51:00.004Z,14.9
2019-06-10T03:52:12.205Z,14.8
2019-06-10T03:54:36.607Z,14.8
2019-06-10T03:55:48.080Z,14.7
2019-06-10T03:57:01.005Z,14.8
2019-06-10T03:58:13.205Z,14.8
2019-06-10T03:59:25.404Z,14.8
2019-06-10T04:00:37.597Z,14.8
2019-06-10T04:01:49.795Z,14.8
2019-06-10T04:03:01.992Z,14.7
2019-06-10T04:04:14.193Z,14.9
2019-06-10T04:05:26.397Z,14.9
2019-06-10T04:06:38.059Z,14.7
2019-06-10T04:07:50.793Z,14.9
2019-06-10T04:09:02.995Z,14.8
2019-06-10T04:10:15.193Z,15
2019-06-10T04:11:27.393Z,14.9
2019-06-10T04:12:39.581Z,14.8
2019-06-10T04:13:51.789Z,14.9
2019-06-10T04:15:03.985Z,14.9
2019-06-10T04:16:16.185Z,14.8
2019-06-10T04:17:28.383Z,14.9
2019-06-10T04:18:40.583Z,15
2019-06-10T04:19:52.078Z,14.9
2019-06-10T04:21:04.985Z,14.9
2019-06-10T04:22:17.183Z,14.8
2019-06-10T04:23:29.385Z,15
2019-06-10T04:24:41.058Z,15
2019-06-10T04:25:53.785Z,15
2019-06-10T04:27:05.971Z,14.9
2019-06-10T04:28:18.174Z,14.9
2019-06-10T04:29:30.373Z,15
2019-06-10T04:30:42.571Z,14.8
2019-06-10T04:31:54.773Z,14.9
2019-06-10T04:33:06.097Z,14.9
2019-06-10T04:34:19.175Z,14.9
2019-06-10T04:35:31.373Z,14.9
2019-06-10T04:36:43.569Z,15
2019-06-10T04:37:55.772Z,14.8
2019-06-10T04:39:08.095Z,15
2019-06-10T04:40:20.015Z,14.8
2019-06-10T04:41:32.361Z,14.9
2019-06-10T04:42:44.562Z,15
2019-06-10T04:43:56.770Z,14.9
2019-06-10T04:45:08.963Z,14.8
2019-06-10T04:46:21.162Z,14.9
2019-06-10T04:47:33.359Z,14.9
2019-06-10T04:48:45.561Z,14.9
2019-06-10T04:49:57.076Z,14.9
2019-06-10T04:51:09.962Z,14.9
2019-06-10T04:52:22.151Z,14.9
2019-06-10T04:53:34.352Z,15
2019-06-10T04:54:46.548Z,15
2019-06-10T04:55:58.755Z,14.9
2019-06-10T04:57:10.969Z,15.1
2019-06-10T04:58:23.149Z,15
2019-06-10T04:59:35.350Z,14.9
2019-06-10T05:00:47.548Z,14.9
2019-06-10T05:01:59.752Z,15.1
2019-06-10T05:03:11.949Z,15
2019-06-10T05:04:24.150Z,14.9
2019-06-10T05:05:36.340Z,14.9
2019-06-10T05:06:48.541Z,14.9
2019-06-10T05:08:00.742Z,14.9
2019-06-10T05:09:12.938Z,14.9
2019-06-10T05:10:25.137Z,14.9
2019-06-10T05:11:37.342Z,14.9
2019-06-10T05:12:49.538Z,15
2019-06-10T05:14:01.740Z,15
2019-06-10T05:15:13.945Z,15
2019-06-10T05:16:26.141Z,14.9
2019-06-10T05:17:38.331Z,15
2019-06-10T05:18:50.532Z,14.9
2019-06-10T05:20:02.729Z,15.1
2019-06-10T05:21:14.928Z,15.1
2019-06-10T05:22:27.012Z,15
2019-06-10T05:23:39.327Z,15
2019-06-10T05:24:51.052Z,15
2019-06-10T05:26:03.727Z,15.1
2019-06-10T05:27:15.928Z,15.1
2019-06-10T05:28:28.129Z,15
2019-06-10T05:29:40.032Z,15.1
2019-06-10T05:30:52.052Z,15.2
2019-06-10T05:32:04.073Z,15
2019-06-10T05:33:16.925Z,15.1
2019-06-10T05:34:29.118Z,15.1
2019-06-10T05:35:41.317Z,15.2
2019-06-10T05:36:53.517Z,15.2
2019-06-10T05:38:05.716Z,15.1
2019-06-10T05:39:17.915Z,15.2
2019-06-10T05:40:30.116Z,15.2
2019-06-10T05:41:42.324Z,15
2019-06-10T05:42:54.052Z,15.1
2019-06-10T05:44:06.071Z,15.1
2019-06-10T05:45:18.918Z,14.9
2019-06-10T05:46:31.011Z,15.1
2019-06-10T05:47:43.315Z,15
2019-06-10T05:48:55.508Z,14.9
2019-06-10T05:50:07.707Z,14.9
2019-06-10T05:51:19.906Z,15.1
2019-06-10T05:52:32.104Z,15
2019-06-10T05:53:44.309Z,15
2019-06-10T05:54:56.506Z,15.1
2019-06-10T05:56:08.705Z,15
2019-06-10T05:57:20.905Z,15
2019-06-10T05:58:33.107Z,15
2019-06-10T05:59:45.307Z,15
2019-06-10T06:00:57.506Z,15
2019-06-10T06:02:09.706Z,15.1
2019-06-10T06:03:21.089Z,15
2019-06-10T06:04:34.094Z,14.9
2019-06-10T06:05:46.295Z,14.9
2019-06-10T06:06:58.526Z,14.9
2019-06-10T06:08:10.695Z,14.9
2019-06-10T06:09:22.896Z,14.9
2019-06-10T06:10:35.096Z,14.9
2019-06-10T06:11:47.296Z,14.8
2019-06-10T06:12:59.494Z,14.8
2019-06-10T06:14:11.695Z,14.7
2019-06-10T06:15:23.894Z,14.7
2019-06-10T06:16:36.084Z,14.7
2019-06-10T06:17:48.283Z,14.6
2019-06-10T06:19:00.493Z,14.7
2019-06-10T06:20:12.689Z,14.6
2019-06-10T06:21:24.089Z,14.6
2019-06-10T06:22:37.099Z,14.6
2019-06-10T06:23:49.297Z,14.7
2019-06-10T06:25:01.491Z,14.7
2019-06-10T06:26:13.695Z,14.7
2019-06-10T06:27:25.894Z,14.7
2019-06-10T06:28:38.093Z,14.6
2019-06-10T06:29:50.293Z,14.7
2019-06-10T06:31:02.493Z,14.6
2019-06-10T06:32:14.069Z,14.6
2019-06-10T06:33:26.897Z,14.7
2019-06-10T06:34:39.094Z,14.6
2019-06-10T06:35:51.292Z,14.8
2019-06-10T06:37:03.502Z,14.7
2019-06-10T06:38:15.731Z,14.6
2019-06-10T06:39:27.891Z,14.8
2019-06-10T06:40:40.092Z,14.7
2019-06-10T06:41:52.302Z,14.7
2019-06-10T06:43:04.509Z,14.7
2019-06-10T06:44:16.699Z,14.7
2019-06-10T06:45:28.903Z,14.8
2019-06-10T06:46:41.107Z,14.9
2019-06-10T06:47:53.300Z,14.8
2019-06-10T06:49:05.506Z,14.9
2019-06-10T06:50:17.070Z,14.9
2019-06-10T06:51:29.901Z,14.9
2019-06-10T06:52:42.103Z,14.9
2019-06-10T06:53:54.299Z,15
2019-06-10T06:55:06.542Z,14.9
2019-06-10T06:56:18.703Z,15
2019-06-10T06:57:30.090Z,14.9
2019-06-10T06:58:43.111Z,15.1
2019-06-10T06:59:55.312Z,15
2019-06-10T07:01:07.504Z,15.2
2019-06-10T07:02:19.712Z,15.2
2019-06-10T07:03:31.911Z,15.2
2019-06-10T07:04:44.110Z,15
2019-06-10T07:05:56.311Z,15.1
2019-06-10T07:07:08.509Z,15
2019-06-10T07:08:20.710Z,15.2
2019-06-10T07:09:32.914Z,15.2
2019-06-10T07:10:45.110Z,15.2
2019-06-10T07:11:57.354Z,15.2
2019-06-10T07:13:09.519Z,15.2
2019-06-10T07:14:21.720Z,15.3
2019-06-10T07:15:33.091Z,15.2
2019-06-10T07:16:46.011Z,15.2
2019-06-10T07:17:58.031Z,15.2
2019-06-10T07:19:10.518Z,15.2
2019-06-10T07:20:22.717Z,15.2
2019-06-10T07:21:34.919Z,15.2
2019-06-10T07:22:47.122Z,15.2
2019-06-10T07:23:59.316Z,15.2
2019-06-10T07:25:11.520Z,15.3
2019-06-10T07:26:23.729Z,15.3
2019-06-10T07:27:35.927Z,15.2
2019-06-10T07:28:48.125Z,15.3
2019-06-10T07:30:00.327Z,15.1
2019-06-10T07:31:12.532Z,15.2
2019-06-10T07:32:24.072Z,15.2
2019-06-10T07:33:36.925Z,15.3
2019-06-10T07:34:49.127Z,15.2
2019-06-10T07:36:01.337Z,15.3
2019-06-10T07:37:13.527Z,15.2
2019-06-10T07:38:25.737Z,15.3
2019-06-10T07:39:37.936Z,15.2
2019-06-10T07:40:50.134Z,15.1
2019-06-10T07:42:02.336Z,15.1
2019-06-10T07:43:14.537Z,15.2
2019-06-10T07:44:26.736Z,15.2
2019-06-10T07:45:38.943Z,15.2
2019-06-10T07:46:51.134Z,15.2
2019-06-10T07:48:03.337Z,15.1
2019-06-10T07:49:15.540Z,15.2
2019-06-10T07:50:27.735Z,15.1
2019-06-10T07:51:39.935Z,15.2
2019-06-10T07:52:52.149Z,15.2
2019-06-10T07:54:04.346Z,15.2
2019-06-10T07:55:16.054Z,15.5
2019-06-10T07:56:28.743Z,15.4
2019-06-10T07:57:40.946Z,15.3
2019-06-10T07:58:53.156Z,15.4
2019-06-10T08:00:05.345Z,15.5
2019-06-10T08:01:17.546Z,15.5
2019-06-10T08:02:29.742Z,15.6
2019-06-10T08:03:42.111Z,15.7
2019-06-10T08:04:54.146Z,15.7
2019-06-10T08:06:06.353Z,15.6
2019-06-10T08:07:18.555Z,15.6
2019-06-10T08:08:30.757Z,15.6
2019-06-10T08:09:42.095Z,15.8
2019-06-10T08:10:55.154Z,15.7
2019-06-10T08:12:07.355Z,15.7
2019-06-10T08:13:19.055Z,15.8
2019-06-10T08:14:31.753Z,15.8
2019-06-10T08:15:43.955Z,15.9
2019-06-10T08:16:56.156Z,15.8
2019-06-10T08:18:08.355Z,15.8
2019-06-10T08:19:20.569Z,15.9
2019-06-10T08:20:32.764Z,16
2019-06-10T08:21:44.961Z,15.9
2019-06-10T08:22:57.017Z,15.9
2019-06-10T08:24:09.363Z,15.9
2019-06-10T08:25:21.561Z,15.8
2019-06-10T08:26:33.768Z,15.8
2019-06-10T08:27:45.096Z,15.7
2019-06-10T08:28:58.162Z,15.8
2019-06-10T08:30:10.361Z,15.6
2019-06-10T08:31:22.563Z,15.7
2019-06-10T08:32:34.007Z,15.8
2019-06-10T08:33:46.097Z,15.8
2019-06-10T08:34:59.175Z,15.6
2019-06-10T08:36:11.372Z,15.7
2019-06-10T08:37:23.572Z,15.5
2019-06-10T08:38:35.077Z,15.6
2019-06-10T08:39:47.972Z,15.5
2019-06-10T08:41:00.178Z,15.6
2019-06-10T08:42:12.370Z,15.5
2019-06-10T08:43:24.576Z,15.4
2019-06-10T08:44:36.768Z,15.4
2019-06-10T08:45:48.972Z,15.5
2019-06-10T08:47:01.182Z,15.5
2019-06-10T08:48:13.378Z,15.5
2019-06-10T08:49:25.579Z,15.5
2019-06-10T08:50:37.783Z,15.4
2019-06-10T08:51:49.981Z,15.4
2019-06-10T08:53:02.179Z,15.4
2019-06-10T08:54:14.379Z,15.4
2019-06-10T08:55:26.582Z,15.4
2019-06-10T08:56:38.783Z,15.4
2019-06-10T08:57:50.099Z,15.6
2019-06-10T08:59:03.181Z,15.4
2019-06-10T09:00:15.391Z,15.6
2019-06-10T09:01:27.590Z,15.5
2019-06-10T09:02:39.789Z,15.6
2019-06-10T09:03:51.990Z,15.5
2019-06-10T09:05:04.000Z,15.5
2019-06-10T09:06:16.392Z,15.4
2019-06-10T09:07:28.600Z,15.5
2019-06-10T09:08:40.790Z,15.4
2019-06-10T09:09:52.995Z,15.5
2019-06-10T09:11:05.195Z,15.5
2019-06-10T09:12:17.399Z,15.5
2019-06-10T09:13:29.600Z,15.4
2019-06-10T09:14:41.798Z,15.5
2019-06-10T09:15:54.001Z,15.6
2019-06-10T09:17:06.196Z,15.6
2019-06-10T09:18:18.400Z,15.6
2019-06-10T09:19:30.601Z,15.6
2019-06-10T09:20:42.798Z,15.6
2019-06-10T09:21:54.999Z,15.6
2019-06-10T09:23:07.200Z,15.7
2019-06-10T09:24:19.397Z,15.5
2019-06-10T09:25:31.602Z,15.7
2019-06-10T09:26:43.809Z,15.6
2019-06-10T09:27:56.012Z,15.7
2019-06-10T09:29:08.224Z,15.8
2019-06-10T09:30:20.407Z,15.7
2019-06-10T09:31:32.617Z,15.6
2019-06-10T09:32:44.809Z,15.7
2019-06-10T09:33:57.015Z,15.7
2019-06-10T09:35:09.211Z,15.6
2019-06-10T09:36:21.410Z,15.7
2019-06-10T09:37:33.610Z,15.8
2019-06-10T09:38:45.808Z,15.5
2019-06-10T09:39:58.017Z,15.7
2019-06-10T09:41:10.220Z,15.7
2019-06-10T09:42:22.415Z,15.6
2019-06-10T09:43:34.615Z,15.7
2019-06-10T09:44:46.081Z,15.6
2019-06-10T09:45:59.017Z,15.7
2019-06-10T09:47:11.219Z,15.6
2019-06-10T09:48:23.419Z,15.5
2019-06-10T09:49:35.617Z,15.6
2019-06-10T09:50:47.819Z,15.6
2019-06-10T09:52:00.013Z,15.5
2019-06-10T09:53:12.225Z,15.5
2019-06-10T09:54:24.425Z,15.5
2019-06-10T09:55:36.062Z,15.5
2019-06-10T09:56:48.825Z,15.5
2019-06-10T09:58:01.023Z,15.5
2019-06-10T09:59:13.225Z,15.6
2019-06-10T10:00:25.430Z,15.6
2019-06-10T10:01:37.625Z,15.5
2019-06-10T10:02:49.008Z,15.7
2019-06-10T10:04:02.026Z,15.5
2019-06-10T10:05:14.225Z,15.6
2019-06-10T10:06:26.425Z,15.7
2019-06-10T10:07:38.637Z,15.5
2019-06-10T10:08:50.834Z,15.7
2019-06-10T10:10:03.075Z,15.6
2019-06-10T10:11:15.231Z,15.6
2019-06-10T10:12:27.433Z,15.6
2019-06-10T10:13:39.636Z,15.7
2019-06-10T10:14:51.083Z,15.6
2019-06-10T10:16:04.036Z,15.5
2019-06-10T10:17:16.237Z,15.6
2019-06-10T10:18:28.434Z,15.6
2019-06-10T10:19:40.641Z,15.5
2019-06-10T10:20:52.841Z,15.5
2019-06-10T10:22:05.045Z,15.5
2019-06-10T10:23:17.245Z,15.4
2019-06-10T10:24:29.445Z,15.5
2019-06-10T10:25:41.645Z,15.4
2019-06-10T10:26:53.845Z,15.5
2019-06-10T10:28:06.041Z,15.5
2019-06-10T10:29:18.245Z,15.4
2019-06-10T10:30:30.467Z,15.6
2019-06-10T10:31:42.645Z,15.5
2019-06-10T10:32:54.845Z,15.6
2019-06-10T10:34:07.041Z,15.7
2019-06-10T10:35:19.251Z,15.6
2019-06-10T10:36:31.460Z,15.6
2019-06-10T10:37:43.653Z,15.7
2019-06-10T10:38:55.853Z,15.6
2019-06-10T10:40:08.049Z,15.7
2019-06-10T10:41:20.251Z,15.7
2019-06-10T10:42:32.456Z,15.7
2019-06-10T10:43:47.409Z,15.6
2019-06-10T10:44:56.852Z,15.6
2019-06-10T10:46:09.052Z,15.4
2019-06-10T10:47:21.252Z,15.8
2019-06-10T10:48:33.452Z,15.7
2019-06-10T10:49:45.662Z,15.7
2019-06-10T10:50:57.862Z,15.8
2019-06-10T10:52:10.063Z,15.8
2019-06-10T10:53:22.262Z,15.9
2019-06-10T10:54:34.004Z,16.1
2019-06-10T10:55:46.066Z,16
2019-06-10T10:56:58.862Z,16.1
2019-06-10T10:58:11.060Z,16
2019-06-10T10:59:23.264Z,16
2019-06-10T11:00:35.457Z,15.9
2019-06-10T11:01:47.668Z,15.9
2019-06-10T11:02:59.869Z,15.9
2019-06-10T11:04:12.000Z,15.8
2019-06-10T11:05:24.027Z,15.8
2019-06-10T11:06:36.468Z,15.9
2019-06-10T11:07:48.067Z,15.8
2019-06-10T11:09:00.870Z,15.9
2019-06-10T11:10:13.072Z,15.7
2019-06-10T11:11:25.270Z,15.9
2019-06-10T11:12:37.558Z,15.9
2019-06-10T11:13:49.669Z,15.9
2019-06-10T11:15:01.088Z,15.9
2019-06-10T11:16:14.080Z,16
2019-06-10T11:17:26.279Z,15.9
2019-06-10T11:18:38.480Z,16
2019-06-10T11:19:50.681Z,15.9
2019-06-10T11:21:02.879Z,15.9
2019-06-10T11:22:15.080Z,15.9
2019-06-10T11:23:27.278Z,16
2019-06-10T11:24:39.482Z,16.1
2019-06-10T11:25:51.689Z,16.2
2019-06-10T11:27:03.891Z,16.2
2019-06-10T11:28:16.092Z,16.2
2019-06-10T11:29:28.292Z,16.2
2019-06-10T11:30:40.491Z,16.3
2019-06-10T11:31:52.690Z,16.3
2019-06-10T11:33:04.008Z,16.3
2019-06-10T11:34:17.090Z,16.5
2019-06-10T11:35:29.290Z,16.3
2019-06-10T11:36:41.491Z,16.4
2019-06-10T11:37:53.690Z,16.4
2019-06-10T11:39:05.905Z,16.3
2019-06-10T11:40:18.098Z,16.3
2019-06-10T11:41:30.300Z,16.2
2019-06-10T11:42:42.498Z,16.3
2019-06-10T11:43:54.700Z,16.2
2019-06-10T11:45:06.899Z,16.2
2019-06-10T11:46:19.104Z,16.1
2019-06-10T11:47:31.300Z,16.1
2019-06-10T11:48:43.511Z,16.2
2019-06-10T11:49:55.711Z,16.2
2019-06-10T11:51:07.908Z,16.1
2019-06-10T11:52:20.111Z,16.2
2019-06-10T11:53:32.309Z,16
2019-06-10T11:54:44.541Z,16.1
2019-06-10T11:55:56.710Z,16.1
2019-06-10T11:57:08.091Z,16
2019-06-10T11:58:21.108Z,16
2019-06-10T11:59:33.308Z,16
2019-06-10T12:00:45.510Z,15.8
2019-06-10T12:01:57.717Z,15.9
2019-06-10T12:03:10.328Z,16
2019-06-10T12:04:22.118Z,16
2019-06-10T12:05:34.316Z,16.1
2019-06-10T12:06:46.051Z,16
2019-06-10T12:07:58.717Z,16.1
2019-06-10T12:09:10.910Z,16.1
2019-06-10T12:10:23.120Z,16.2
2019-06-10T12:11:35.319Z,16.1
2019-06-10T12:12:47.517Z,16.1
2019-06-10T12:13:59.721Z,16.3
2019-06-10T12:15:11.092Z,16.3
2019-06-10T12:16:24.127Z,16.2
2019-06-10T12:17:36.326Z,16.2
2019-06-10T12:18:48.528Z,16.4
2019-06-10T12:20:00.072Z,16.2
2019-06-10T12:21:12.933Z,16.2
2019-06-10T12:22:25.124Z,16.1
2019-06-10T12:23:37.326Z,16.1
2019-06-10T12:24:49.052Z,16.2
2019-06-10T12:26:01.725Z,16.3
2019-06-10T12:27:13.093Z,16.2
2019-06-10T12:28:26.126Z,16.3
2019-06-10T12:29:38.336Z,16.3
2019-06-10T12:30:50.534Z,16.2
2019-06-10T12:32:02.073Z,16.3
2019-06-10T12:33:14.937Z,16.5
2019-06-10T12:34:27.136Z,16.5
2019-06-10T12:35:39.335Z,16.6
2019-06-10T12:36:51.538Z,16.5
2019-06-10T12:38:03.740Z,16.4
2019-06-10T12:39:15.976Z,16.5
2019-06-10T12:40:28.137Z,16.4
2019-06-10T12:41:40.034Z,16.5
2019-06-10T12:42:52.546Z,16.4
2019-06-10T12:44:04.745Z,16.5
2019-06-10T12:45:16.946Z,16.3
2019-06-10T12:46:29.146Z,16.4
2019-06-10T12:47:41.345Z,16.4
2019-06-10T12:48:53.547Z,16.6
2019-06-10T12:50:05.744Z,16.3
2019-06-10T12:51:17.946Z,16.3
2019-06-10T12:52:30.150Z,16.2
2019-06-10T12:53:42.354Z,16.3
2019-06-10T12:54:54.555Z,16.3
2019-06-10T12:56:06.755Z,16.3
2019-06-10T12:57:18.953Z,16.3
2019-06-10T12:58:31.156Z,16.2
2019-06-10T12:59:43.355Z,16.3
2019-06-10T13:00:55.581Z,16.3
2019-06-10T13:02:07.753Z,16.4
2019-06-10T13:03:19.095Z,16.4
2019-06-10T13:04:32.160Z,16.6
2019-06-10T13:05:44.366Z,16.6
2019-06-10T13:06:56.564Z,16.6
2019-06-10T13:08:08.076Z,16.6
2019-06-10T13:09:20.964Z,16.6
2019-06-10T13:10:33.166Z,16.7
2019-06-10T13:11:45.364Z,16.8
2019-06-10T13:12:57.562Z,16.7
2019-06-10T13:14:09.762Z,16.7
2019-06-10T13:15:21.965Z,16.8
2019-06-10T13:16:34.163Z,16.6
2019-06-10T13:17:46.370Z,16.5
2019-06-10T13:18:58.577Z,16.7
2019-06-10T13:20:10.774Z,16.5
2019-06-10T13:21:22.973Z,16.4
2019-06-10T13:22:35.175Z,16.3
2019-06-10T13:23:47.037Z,16.3
2019-06-10T13:24:59.573Z,16.3
2019-06-10T13:26:11.774Z,16.3
2019-06-10T13:27:23.975Z,16.2
2019-06-10T13:28:36.017Z,16.2
2019-06-10T13:29:48.409Z,16.3
2019-06-10T13:31:00.580Z,16.3
2019-06-10T13:32:12.784Z,16.3
2019-06-10T13:33:24.983Z,16.3
2019-06-10T13:34:37.182Z,16.3
2019-06-10T13:35:49.381Z,16.4
2019-06-10T13:37:01.904Z,16.4
2019-06-10T13:38:13.783Z,16.4
2019-06-10T13:39:25.983Z,16.5
2019-06-10T13:40:38.184Z,16.4
2019-06-10T13:41:50.384Z,16.4
2019-06-10T13:43:02.583Z,16.4
2019-06-10T13:44:14.793Z,16.4
2019-06-10T13:45:26.992Z,16.6
2019-06-10T13:46:39.192Z,16.6
2019-06-10T13:47:51.389Z,16.5
2019-06-10T13:49:03.591Z,16.6
2019-06-10T13:50:15.797Z,16.6
2019-06-10T13:51:27.992Z,16.4
2019-06-10T13:52:40.194Z,16.3
2019-06-10T13:53:52.389Z,16.4
2019-06-10T13:55:04.593Z,16.3
2019-06-10T13:56:16.804Z,16.4
2019-06-10T13:57:28.992Z,16.4
2019-06-10T13:58:41.001Z,16.3
2019-06-10T13:59:53.398Z,16.2
2019-06-10T14:01:05.060Z,16.3
2019-06-10T14:02:17.080Z,16.4
2019-06-10T14:03:30.037Z,16.4
2019-06-10T14:05:54.400Z,16.4
2019-06-10T14:07:06.605Z,16.3
2019-06-10T14:08:18.821Z,16.4
2019-06-10T14:09:31.008Z,16.4
2019-06-10T14:10:43.210Z,16.5
2019-06-10T14:11:55.412Z,16.6
2019-06-10T14:13:07.062Z,16.5
2019-06-10T14:14:19.812Z,16.6
2019-06-10T14:15:32.001Z,16.8
2019-06-10T14:16:44.214Z,16.8
2019-06-10T14:17:56.409Z,16.7
2019-06-10T14:19:08.612Z,16.9
2019-06-10T14:20:20.818Z,17
2019-06-10T14:21:33.019Z,17
2019-06-10T14:22:45.219Z,17
2019-06-10T14:23:57.448Z,16.9
2019-06-10T14:25:10.737Z,17.1
2019-06-10T14:26:22.207Z,17.2
2019-06-10T14:27:34.025Z,17
2019-06-10T14:28:46.216Z,17.1
2019-06-10T14:29:58.420Z,17
2019-06-10T14:32:22.828Z,17.1
2019-06-10T14:33:35.022Z,17.1
2019-06-10T14:34:47.228Z,17
2019-06-10T14:35:59.919Z,17.2
2019-06-10T14:37:11.638Z,17.1
2019-06-10T14:38:23.857Z,17.1
2019-06-10T14:40:48.398Z,17.2
2019-06-10T14:42:00.634Z,17.2
2019-06-10T14:43:12.638Z,17.3
2019-06-10T14:44:24.841Z,17.3
2019-06-10T14:45:37.038Z,17.3
2019-06-10T14:46:49.238Z,17.3
2019-06-10T14:48:01.043Z,17.3
2019-06-10T14:49:13.710Z,17.4
2019-06-10T14:50:25.856Z,17.3
2019-06-10T14:51:38.041Z,17.3
2019-06-10T14:52:50.238Z,17.4
2019-06-10T14:54:02.449Z,17.5
2019-06-10T14:55:14.650Z,17.6
2019-06-10T14:56:26.846Z,17.5
2019-06-10T14:57:39.048Z,17.7
2019-06-10T14:58:51.250Z,17.6
2019-06-10T15:00:03.474Z,17.6
2019-06-10T15:01:15.649Z,17.7
2019-06-10T15:02:27.848Z,17.6
2019-06-10T15:03:40.004Z,17.4
2019-06-10T15:04:52.272Z,17.5
2019-06-10T15:06:04.458Z,17.6
2019-06-10T15:07:16.065Z,17.6
2019-06-10T15:08:28.858Z,17.7
2019-06-10T15:09:41.058Z,17.7
2019-06-10T15:10:53.256Z,17.8
2019-06-10T15:12:05.457Z,17.6
2019-06-10T15:13:17.659Z,17.7
2019-06-10T15:14:29.857Z,17.5
2019-06-10T15:15:42.064Z,17.7
2019-06-10T15:16:54.269Z,17.6
2019-06-10T15:18:06.468Z,17.7
2019-06-10T15:19:18.664Z,17.6
2019-06-10T15:20:30.863Z,17.7
2019-06-10T15:21:43.067Z,17.7
2019-06-10T15:22:55.266Z,17.8
2019-06-10T15:24:07.046Z,17.7
2019-06-10T15:25:19.674Z,17.7
2019-06-10T15:26:31.087Z,17.8
2019-06-10T15:27:44.077Z,17.8
2019-06-10T15:30:08.475Z,17.7
2019-06-10T15:31:20.677Z,17.7
2019-06-10T15:32:32.876Z,17.8
2019-06-10T15:33:45.075Z,17.9
2019-06-10T15:34:57.275Z,17.7
2019-06-10T15:36:09.475Z,18
2019-06-10T15:37:21.068Z,17.8
2019-06-10T15:38:33.887Z,17.9
2019-06-10T15:39:46.086Z,17.9
2019-06-10T15:40:58.285Z,17.9
2019-06-10T15:42:10.489Z,18
2019-06-10T15:43:22.685Z,17.9
2019-06-10T15:44:34.885Z,18.1
2019-06-10T15:45:47.011Z,18
2019-06-10T15:46:59.285Z,17.9
2019-06-10T15:48:11.048Z,17.9
2019-06-10T15:49:23.697Z,18
2019-06-10T15:50:35.893Z,18.1
2019-06-10T15:51:48.088Z,18
2019-06-10T15:53:00.283Z,18.1
2019-06-10T15:54:12.486Z,17.9
2019-06-10T15:55:24.685Z,17.9
2019-06-10T15:56:36.882Z,17.8
2019-06-10T15:57:49.087Z,17.9
2019-06-10T15:59:01.282Z,17.9
2019-06-10T16:00:13.484Z,17.9
2019-06-10T16:01:25.685Z,17.9
2019-06-10T16:02:37.880Z,18
2019-06-10T16:03:50.008Z,17.9
2019-06-10T16:05:02.272Z,17.9
2019-06-10T16:06:14.472Z,17.8
2019-06-10T16:07:26.675Z,17.7
2019-06-10T16:08:38.876Z,17.6
2019-06-10T16:09:51.075Z,17.6
2019-06-10T16:11:03.271Z,17.5
2019-06-10T16:12:15.473Z,17.3
2019-06-10T16:13:27.687Z,17.3
2019-06-10T16:14:39.876Z,17.3
2019-06-10T16:15:52.072Z,17.3
2019-06-10T16:17:04.265Z,17.3
2019-06-10T16:18:16.463Z,17.3